Ketrzyn, Poland
Current Conditions -  °F | °C
As of 5:00 PM on Friday 24 Oct 2014 (Local Time) from UMKK Reporting Station
Clear Clear  
Wind Chill: 29°   Ceiling: Unl
Heat Index: 36°   Visibility: 6mi
Dew Point: 16°   Wind: 9mph
Humidity: 44%   Direction: 160°SSE
Pressure: 30.39"   Gusts: NA
Location:  54.08°N, 21.37°E
Report Text: UMKK 241500Z 16004MPS CAVOK 02/M09 Q1029 R24/CLRD70 NOSIG RMKQFE771/1028
Loading
Personal Weather Stations






























Interactive Weather Map
Tropical Storm Tracking
New forecast layout! Learn more

10-Day Weather Forecast

Advertisements
Track Severe Weather on mobile